sensor_id;sensor_type;location;lat;lon;timestamp;P1;durP1;ratioP1;P2;durP2;ratioP2
36653;SDS011;22650;49.350;20.898;2023-08-17T00:00:26;265.35;;;160.75;;
36653;SDS011;22650;49.350;20.898;2023-08-17T00:02:59;243.35;;;143.23;;
36653;SDS011;22650;49.350;20.898;2023-08-17T00:05:33;293.40;;;163.30;;
36653;SDS011;22650;49.350;20.898;2023-08-17T00:08:07;302.05;;;155.45;;
36653;SDS011;22650;49.350;20.898;2023-08-17T00:10:40;300.98;;;165.15;;
36653;SDS011;22650;49.350;20.898;2023-08-17T00:13:15;238.18;;;159.40;;
36653;SDS011;22650;49.350;20.898;2023-08-17T00:15:49;309.10;;;167.07;;
36653;SDS011;22650;49.350;20.898;2023-08-17T00:18:23;270.08;;;166.65;;
36653;SDS011;22650;49.350;20.898;2023-08-17T00:20:57;259.35;;;162.38;;
36653;SDS011;22650;49.350;20.898;2023-08-17T00:23:30;240.07;;;174.20;;
36653;SDS011;22650;49.350;20.898;2023-08-17T00:26:04;246.07;;;164.15;;
36653;SDS011;22650;49.350;20.898;2023-08-17T00:28:39;271.50;;;161.68;;
36653;SDS011;22650;49.350;20.898;2023-08-17T00:31:14;283.20;;;160.20;;
36653;SDS011;22650;49.350;20.898;2023-08-17T00:33:48;224.55;;;152.50;;
36653;SDS011;22650;49.350;20.898;2023-08-17T00:36:22;304.15;;;156.95;;
36653;SDS011;22650;49.350;20.898;2023-08-17T00:38:56;260.15;;;155.10;;
36653;SDS011;22650;49.350;20.898;2023-08-17T00:41:29;242.40;;;153.13;;
36653;SDS011;22650;49.350;20.898;2023-08-17T00:44:05;267.27;;;168.43;;
36653;SDS011;22650;49.350;20.898;2023-08-17T00:46:39;270.02;;;146.07;;
36653;SDS011;22650;49.350;20.898;2023-08-17T00:49:13;270.60;;;173.88;;
36653;SDS011;22650;49.350;20.898;2023-08-17T00:51:46;263.35;;;156.40;;
36653;SDS011;22650;49.350;20.898;2023-08-17T00:54:23;259.65;;;153.43;;
36653;SDS011;22650;49.350;20.898;2023-08-17T00:56:58;275.95;;;160.77;;
36653;SDS011;22650;49.350;20.898;2023-08-17T00:59:34;320.48;;;146.73;;
36653;SDS011;22650;49.350;20.898;2023-08-17T01:02:08;244.23;;;153.98;;
36653;SDS011;22650;49.350;20.898;2023-08-17T01:04:42;283.45;;;157.52;;
36653;SDS011;22650;49.350;20.898;2023-08-17T01:07:16;249.95;;;163.65;;
36653;SDS011;22650;49.350;20.898;2023-08-17T01:09:49;305.42;;;159.10;;
36653;SDS011;22650;49.350;20.898;2023-08-17T01:12:26;269.33;;;168.55;;
36653;SDS011;22650;49.350;20.898;2023-08-17T01:15:14;273.52;;;154.43;;
36653;SDS011;22650;49.350;20.898;2023-08-17T01:17:54;253.85;;;143.98;;
36653;SDS011;22650;49.350;20.898;2023-08-17T01:20:33;263.27;;;162.65;;
36653;SDS011;22650;49.350;20.898;2023-08-17T01:23:11;239.48;;;162.98;;
36653;SDS011;22650;49.350;20.898;2023-08-17T01:25:45;282.13;;;166.23;;
36653;SDS011;22650;49.350;20.898;2023-08-17T01:28:18;278.42;;;159.43;;
36653;SDS011;22650;49.350;20.898;2023-08-17T01:30:53;267.75;;;148.23;;
36653;SDS011;22650;49.350;20.898;2023-08-17T01:33:31;258.08;;;156.38;;
36653;SDS011;22650;49.350;20.898;2023-08-17T01:36:11;269.45;;;158.88;;
36653;SDS011;22650;49.350;20.898;2023-08-17T01:38:51;335.75;;;154.23;;
36653;SDS011;22650;49.350;20.898;2023-08-17T01:41:27;259.25;;;158.13;;
36653;SDS011;22650;49.350;20.898;2023-08-17T01:44:02;249.73;;;159.30;;
36653;SDS011;22650;49.350;20.898;2023-08-17T01:46:37;290.23;;;161.63;;
36653;SDS011;22650;49.350;20.898;2023-08-17T01:49:13;308.73;;;172.98;;
36653;SDS011;22650;49.350;20.898;2023-08-17T01:51:47;260.88;;;192.93;;
36653;SDS011;22650;49.350;20.898;2023-08-17T01:54:22;297.02;;;165.65;;
36653;SDS011;22650;49.350;20.898;2023-08-17T01:56:56;264.08;;;166.70;;
36653;SDS011;22650;49.350;20.898;2023-08-17T01:59:30;270.05;;;168.95;;
36653;SDS011;22650;49.350;20.898;2023-08-17T02:02:04;290.48;;;185.25;;
36653;SDS011;22650;49.350;20.898;2023-08-17T02:04:38;288.45;;;171.30;;
36653;SDS011;22650;49.350;20.898;2023-08-17T02:07:13;241.27;;;181.07;;
36653;SDS011;22650;49.350;20.898;2023-08-17T02:09:48;272.75;;;157.98;;
36653;SDS011;22650;49.350;20.898;2023-08-17T02:12:22;269.50;;;159.30;;
36653;SDS011;22650;49.350;20.898;2023-08-17T02:14:55;262.55;;;156.35;;
36653;SDS011;22650;49.350;20.898;2023-08-17T02:17:29;250.52;;;178.40;;
36653;SDS011;22650;49.350;20.898;2023-08-17T02:20:03;274.48;;;184.48;;
36653;SDS011;22650;49.350;20.898;2023-08-17T02:22:38;250.68;;;175.73;;
36653;SDS011;22650;49.350;20.898;2023-08-17T02:25:14;241.68;;;153.27;;
36653;SDS011;22650;49.350;20.898;2023-08-17T02:27:48;241.73;;;149.57;;
36653;SDS011;22650;49.350;20.898;2023-08-17T02:30:21;224.43;;;154.13;;
36653;SDS011;22650;49.350;20.898;2023-08-17T02:32:55;266.10;;;169.38;;
36653;SDS011;22650;49.350;20.898;2023-08-17T02:35:29;261.60;;;155.73;;
36653;SDS011;22650;49.350;20.898;2023-08-17T02:38:03;276.80;;;169.60;;
36653;SDS011;22650;49.350;20.898;2023-08-17T02:40:38;260.48;;;157.40;;
36653;SDS011;22650;49.350;20.898;2023-08-17T02:43:12;276.40;;;160.15;;
36653;SDS011;22650;49.350;20.898;2023-08-17T02:45:45;272.75;;;151.50;;
36653;SDS011;22650;49.350;20.898;2023-08-17T02:48:19;233.32;;;154.77;;
36653;SDS011;22650;49.350;20.898;2023-08-17T02:50:53;243.38;;;146.52;;
36653;SDS011;22650;49.350;20.898;2023-08-17T02:53:26;239.93;;;151.50;;
36653;SDS011;22650;49.350;20.898;2023-08-17T02:56:02;267.58;;;158.88;;
36653;SDS011;22650;49.350;20.898;2023-08-17T02:58:35;278.35;;;156.40;;
36653;SDS011;22650;49.350;20.898;2023-08-17T03:01:10;272.45;;;167.00;;
36653;SDS011;22650;49.350;20.898;2023-08-17T03:03:45;231.13;;;145.63;;
36653;SDS011;22650;49.350;20.898;2023-08-17T03:06:19;284.17;;;161.85;;
36653;SDS011;22650;49.350;20.898;2023-08-17T03:08:52;245.20;;;152.70;;
36653;SDS011;22650;49.350;20.898;2023-08-17T03:11:27;224.73;;;149.70;;
36653;SDS011;22650;49.350;20.898;2023-08-17T03:14:01;286.13;;;163.23;;
36653;SDS011;22650;49.350;20.898;2023-08-17T03:16:35;281.88;;;157.82;;
36653;SDS011;22650;49.350;20.898;2023-08-17T03:19:09;279.60;;;165.00;;
36653;SDS011;22650;49.350;20.898;2023-08-17T03:21:46;251.45;;;169.15;;
36653;SDS011;22650;49.350;20.898;2023-08-17T03:24:20;234.25;;;157.73;;
36653;SDS011;22650;49.350;20.898;2023-08-17T03:26:57;314.73;;;167.65;;
36653;SDS011;22650;49.350;20.898;2023-08-17T03:29:31;300.35;;;175.77;;
36653;SDS011;22650;49.350;20.898;2023-08-17T03:32:04;306.50;;;167.25;;
36653;SDS011;22650;49.350;20.898;2023-08-17T03:34:38;240.68;;;145.57;;
36653;SDS011;22650;49.350;20.898;2023-08-17T03:37:13;262.10;;;147.93;;
36653;SDS011;22650;49.350;20.898;2023-08-17T03:39:45;294.33;;;161.73;;
36653;SDS011;22650;49.350;20.898;2023-08-17T03:42:20;293.13;;;157.95;;
36653;SDS011;22650;49.350;20.898;2023-08-17T03:44:54;298.02;;;160.20;;
36653;SDS011;22650;49.350;20.898;2023-08-17T03:47:28;284.60;;;155.18;;
36653;SDS011;22650;49.350;20.898;2023-08-17T03:50:01;253.57;;;157.30;;
36653;SDS011;22650;49.350;20.898;2023-08-17T03:52:35;258.67;;;152.65;;
36653;SDS011;22650;49.350;20.898;2023-08-17T03:55:09;243.23;;;141.20;;
36653;SDS011;22650;49.350;20.898;2023-08-17T03:57:44;240.95;;;159.75;;
36653;SDS011;22650;49.350;20.898;2023-08-17T04:00:18;277.88;;;163.80;;
36653;SDS011;22650;49.350;20.898;2023-08-17T04:02:57;249.13;;;153.55;;
36653;SDS011;22650;49.350;20.898;2023-08-17T04:05:31;201.90;;;155.85;;
36653;SDS011;22650;49.350;20.898;2023-08-17T04:08:04;265.48;;;144.50;;
36653;SDS011;22650;49.350;20.898;2023-08-17T04:10:38;265.27;;;169.07;;
36653;SDS011;22650;49.350;20.898;2023-08-17T04:13:13;256.77;;;165.25;;
36653;SDS011;22650;49.350;20.898;2023-08-17T04:15:47;253.80;;;185.85;;
36653;SDS011;22650;49.350;20.898;2023-08-17T04:18:21;247.70;;;188.30;;
36653;SDS011;22650;49.350;20.898;2023-08-17T04:20:54;251.02;;;149.93;;
36653;SDS011;22650;49.350;20.898;2023-08-17T04:23:29;220.07;;;161.95;;
36653;SDS011;22650;49.350;20.898;2023-08-17T04:26:02;225.15;;;155.20;;
36653;SDS011;22650;49.350;20.898;2023-08-17T04:28:37;253.02;;;161.82;;
36653;SDS011;22650;49.350;20.898;2023-08-17T04:31:11;246.75;;;176.32;;
36653;SDS011;22650;49.350;20.898;2023-08-17T04:33:45;225.10;;;168.35;;
36653;SDS011;22650;49.350;20.898;2023-08-17T04:36:19;265.63;;;178.02;;
36653;SDS011;22650;49.350;20.898;2023-08-17T04:38:52;290.30;;;148.25;;
36653;SDS011;22650;49.350;20.898;2023-08-17T04:41:26;274.63;;;178.57;;
36653;SDS011;22650;49.350;20.898;2023-08-17T04:44:01;247.13;;;172.20;;
36653;SDS011;22650;49.350;20.898;2023-08-17T04:46:35;248.25;;;178.77;;
36653;SDS011;22650;49.350;20.898;2023-08-17T04:49:09;203.40;;;140.18;;
36653;SDS011;22650;49.350;20.898;2023-08-17T04:51:43;283.65;;;162.57;;
36653;SDS011;22650;49.350;20.898;2023-08-17T04:54:17;286.40;;;196.35;;
36653;SDS011;22650;49.350;20.898;2023-08-17T04:56:51;284.08;;;178.93;;
36653;SDS011;22650;49.350;20.898;2023-08-17T04:59:26;259.55;;;220.85;;
36653;SDS011;22650;49.350;20.898;2023-08-17T05:01:59;305.33;;;207.63;;
36653;SDS011;22650;49.350;20.898;2023-08-17T05:04:34;240.07;;;179.35;;
36653;SDS011;22650;49.350;20.898;2023-08-17T05:07:08;288.90;;;196.38;;
36653;SDS011;22650;49.350;20.898;2023-08-17T05:09:42;269.70;;;171.50;;
36653;SDS011;22650;49.350;20.898;2023-08-17T05:12:16;283.40;;;222.02;;
36653;SDS011;22650;49.350;20.898;2023-08-17T05:14:51;249.70;;;194.82;;
36653;SDS011;22650;49.350;20.898;2023-08-17T05:17:25;272.40;;;185.98;;
36653;SDS011;22650;49.350;20.898;2023-08-17T05:20:00;335.02;;;234.23;;
36653;SDS011;22650;49.350;20.898;2023-08-17T05:22:35;325.85;;;275.42;;
36653;SDS011;22650;49.350;20.898;2023-08-17T05:25:09;223.68;;;177.68;;
36653;SDS011;22650;49.350;20.898;2023-08-17T05:27:44;289.02;;;214.70;;
36653;SDS011;22650;49.350;20.898;2023-08-17T05:30:19;281.33;;;221.05;;
36653;SDS011;22650;49.350;20.898;2023-08-17T05:32:53;267.70;;;177.02;;
36653;SDS011;22650;49.350;20.898;2023-08-17T05:35:25;276.10;;;150.63;;
36653;SDS011;22650;49.350;20.898;2023-08-17T05:37:59;248.90;;;147.00;;
36653;SDS011;22650;49.350;20.898;2023-08-17T05:40:33;298.80;;;165.32;;
36653;SDS011;22650;49.350;20.898;2023-08-17T05:43:07;289.98;;;157.98;;
36653;SDS011;22650;49.350;20.898;2023-08-17T05:45:42;231.80;;;148.38;;
36653;SDS011;22650;49.350;20.898;2023-08-17T05:48:17;260.05;;;156.10;;
36653;SDS011;22650;49.350;20.898;2023-08-17T05:50:51;307.35;;;149.50;;
36653;SDS011;22650;49.350;20.898;2023-08-17T05:53:25;296.42;;;150.68;;
36653;SDS011;22650;49.350;20.898;2023-08-17T05:55:59;358.25;;;163.75;;
36653;SDS011;22650;49.350;20.898;2023-08-17T05:58:32;297.67;;;155.70;;
36653;SDS011;22650;49.350;20.898;2023-08-17T06:01:07;300.90;;;159.60;;
36653;SDS011;22650;49.350;20.898;2023-08-17T06:03:42;313.27;;;152.68;;
36653;SDS011;22650;49.350;20.898;2023-08-17T06:06:16;316.63;;;167.52;;
36653;SDS011;22650;49.350;20.898;2023-08-17T06:08:50;326.00;;;153.68;;
36653;SDS011;22650;49.350;20.898;2023-08-17T06:11:23;295.92;;;147.77;;
36653;SDS011;22650;49.350;20.898;2023-08-17T06:13:57;339.30;;;154.55;;
36653;SDS011;22650;49.350;20.898;2023-08-17T06:16:32;412.05;;;155.73;;
36653;SDS011;22650;49.350;20.898;2023-08-17T06:19:06;375.08;;;180.77;;
36653;SDS011;22650;49.350;20.898;2023-08-17T06:21:39;311.08;;;166.50;;
36653;SDS011;22650;49.350;20.898;2023-08-17T06:24:13;383.35;;;170.02;;
36653;SDS011;22650;49.350;20.898;2023-08-17T06:26:47;402.02;;;178.50;;
36653;SDS011;22650;49.350;20.898;2023-08-17T06:29:20;326.65;;;154.65;;
36653;SDS011;22650;49.350;20.898;2023-08-17T06:31:55;449.80;;;221.70;;
36653;SDS011;22650;49.350;20.898;2023-08-17T06:34:29;359.65;;;184.50;;
36653;SDS011;22650;49.350;20.898;2023-08-17T06:37:03;380.15;;;170.02;;
36653;SDS011;22650;49.350;20.898;2023-08-17T06:39:37;1207.45;;;554.75;;
36653;SDS011;22650;49.350;20.898;2023-08-17T06:42:11;634.97;;;254.38;;
36653;SDS011;22650;49.350;20.898;2023-08-17T06:44:45;1071.50;;;475.00;;
36653;SDS011;22650;49.350;20.898;2023-08-17T06:47:20;1772.05;;;799.58;;
36653;SDS011;22650;49.350;20.898;2023-08-17T06:49:54;1999.90;;;918.15;;
36653;SDS011;22650;49.350;20.898;2023-08-17T06:52:29;1574.38;;;736.85;;
36653;SDS011;22650;49.350;20.898;2023-08-17T06:55:03;1999.90;;;999.90;;
36653;SDS011;22650;49.350;20.898;2023-08-17T06:57:37;1641.38;;;748.05;;
36653;SDS011;22650;49.350;20.898;2023-08-17T07:00:11;1929.45;;;881.80;;
36653;SDS011;22650;49.350;20.898;2023-08-17T07:02:46;1999.90;;;999.90;;
36653;SDS011;22650;49.350;20.898;2023-08-17T07:05:26;1999.90;;;999.90;;
36653;SDS011;22650;49.350;20.898;2023-08-17T07:08:00;1999.90;;;999.90;;
36653;SDS011;22650;49.350;20.898;2023-08-17T07:10:34;1999.90;;;999.90;;
36653;SDS011;22650;49.350;20.898;2023-08-17T07:13:08;1999.90;;;999.90;;
36653;SDS011;22650;49.350;20.898;2023-08-17T07:15:41;1999.90;;;999.90;;
36653;SDS011;22650;49.350;20.898;2023-08-17T07:18:17;1999.90;;;999.90;;
36653;SDS011;22650;49.350;20.898;2023-08-17T07:20:52;1999.90;;;999.90;;
36653;SDS011;22650;49.350;20.898;2023-08-17T07:23:29;1999.90;;;999.90;;
36653;SDS011;22650;49.350;20.898;2023-08-17T07:26:03;1999.90;;;999.90;;
36653;SDS011;22650;49.350;20.898;2023-08-17T07:28:36;1999.90;;;999.90;;
36653;SDS011;22650;49.350;20.898;2023-08-17T07:31:10;1999.90;;;999.90;;
36653;SDS011;22650;49.350;20.898;2023-08-17T07:33:46;1999.90;;;999.90;;
36653;SDS011;22650;49.350;20.898;2023-08-17T07:36:20;1999.90;;;989.13;;
36653;SDS011;22650;49.350;20.898;2023-08-17T07:38:54;1999.90;;;999.90;;
36653;SDS011;22650;49.350;20.898;2023-08-17T07:41:28;1999.90;;;999.90;;
36653;SDS011;22650;49.350;20.898;2023-08-17T07:44:01;1999.90;;;998.67;;
36653;SDS011;22650;49.350;20.898;2023-08-17T07:46:35;1999.90;;;793.67;;
36653;SDS011;22650;49.350;20.898;2023-08-17T07:49:10;1999.90;;;922.53;;
36653;SDS011;22650;49.350;20.898;2023-08-17T07:52:02;1999.90;;;685.30;;
36653;SDS011;22650;49.350;20.898;2023-08-17T07:54:36;1999.90;;;686.38;;
36653;SDS011;22650;49.350;20.898;2023-08-17T07:57:11;1999.90;;;999.90;;
36653;SDS011;22650;49.350;20.898;2023-08-17T07:59:47;1999.90;;;999.90;;
36653;SDS011;22650;49.350;20.898;2023-08-17T08:02:22;1999.90;;;999.90;;
36653;SDS011;22650;49.350;20.898;2023-08-17T08:04:58;1999.90;;;511.70;;
36653;SDS011;22650;49.350;20.898;2023-08-17T08:07:32;1999.90;;;999.90;;
36653;SDS011;22650;49.350;20.898;2023-08-17T08:10:06;1999.90;;;999.90;;
36653;SDS011;22650;49.350;20.898;2023-08-17T08:12:40;1999.90;;;999.90;;
36653;SDS011;22650;49.350;20.898;2023-08-17T08:15:18;1999.90;;;999.90;;
36653;SDS011;22650;49.350;20.898;2023-08-17T08:17:51;1999.90;;;999.90;;
36653;SDS011;22650;49.350;20.898;2023-08-17T08:20:27;1999.90;;;999.90;;
36653;SDS011;22650;49.350;20.898;2023-08-17T08:23:00;1999.90;;;999.90;;
36653;SDS011;22650;49.350;20.898;2023-08-17T08:25:35;1999.90;;;999.90;;
36653;SDS011;22650;49.350;20.898;2023-08-17T08:28:08;1999.90;;;999.90;;
36653;SDS011;22650;49.350;20.898;2023-08-17T08:30:42;1999.90;;;999.90;;
36653;SDS011;22650;49.350;20.898;2023-08-17T08:33:16;1999.90;;;999.90;;
36653;SDS011;22650;49.350;20.898;2023-08-17T08:35:51;1999.90;;;999.90;;
36653;SDS011;22650;49.350;20.898;2023-08-17T08:38:25;1999.90;;;999.90;;
36653;SDS011;22650;49.350;20.898;2023-08-17T08:40:58;1999.90;;;999.90;;
36653;SDS011;22650;49.350;20.898;2023-08-17T08:43:33;1999.90;;;999.90;;
36653;SDS011;22650;49.350;20.898;2023-08-17T08:46:07;1999.90;;;999.90;;
36653;SDS011;22650;49.350;20.898;2023-08-17T08:48:41;1999.90;;;999.90;;
36653;SDS011;22650;49.350;20.898;2023-08-17T08:51:21;1999.90;;;999.90;;
36653;SDS011;22650;49.350;20.898;2023-08-17T08:54:00;1999.90;;;999.90;;
36653;SDS011;22650;49.350;20.898;2023-08-17T08:56:37;1999.90;;;999.90;;
36653;SDS011;22650;49.350;20.898;2023-08-17T08:59:19;1999.90;;;999.90;;
36653;SDS011;22650;49.350;20.898;2023-08-17T09:01:55;1999.90;;;999.90;;
36653;SDS011;22650;49.350;20.898;2023-08-17T09:04:30;1999.90;;;999.90;;
36653;SDS011;22650;49.350;20.898;2023-08-17T09:07:06;1999.90;;;999.90;;
36653;SDS011;22650;49.350;20.898;2023-08-17T09:09:42;1999.90;;;999.90;;
36653;SDS011;22650;49.350;20.898;2023-08-17T09:12:17;1999.90;;;999.90;;
36653;SDS011;22650;49.350;20.898;2023-08-17T09:15:10;1999.90;;;999.90;;
36653;SDS011;22650;49.350;20.898;2023-08-17T09:17:44;1999.90;;;999.90;;
36653;SDS011;22650;49.350;20.898;2023-08-17T09:20:36;1999.90;;;999.90;;
36653;SDS011;22650;49.350;20.898;2023-08-17T09:23:19;1999.90;;;999.90;;
36653;SDS011;22650;49.350;20.898;2023-08-17T09:25:55;1999.90;;;999.90;;
36653;SDS011;22650;49.350;20.898;2023-08-17T09:28:30;1999.90;;;999.90;;
36653;SDS011;22650;49.350;20.898;2023-08-17T09:31:04;1999.90;;;999.90;;
36653;SDS011;22650;49.350;20.898;2023-08-17T09:33:37;1999.90;;;999.90;;
36653;SDS011;22650;49.350;20.898;2023-08-17T09:36:19;1999.90;;;999.90;;
36653;SDS011;22650;49.350;20.898;2023-08-17T09:38:55;1999.90;;;999.90;;
36653;SDS011;22650;49.350;20.898;2023-08-17T09:41:29;1999.90;;;999.90;;
36653;SDS011;22650;49.350;20.898;2023-08-17T09:44:04;1999.90;;;999.90;;
36653;SDS011;22650;49.350;20.898;2023-08-17T09:46:42;1999.90;;;999.90;;
36653;SDS011;22650;49.350;20.898;2023-08-17T09:49:17;1999.90;;;999.90;;
36653;SDS011;22650;49.350;20.898;2023-08-17T09:51:51;1999.90;;;999.90;;
36653;SDS011;22650;49.350;20.898;2023-08-17T09:54:27;1999.90;;;999.90;;
36653;SDS011;22650;49.350;20.898;2023-08-17T09:57:03;1999.90;;;999.90;;
36653;SDS011;22650;49.350;20.898;2023-08-17T09:59:37;1999.90;;;999.90;;
36653;SDS011;22650;49.350;20.898;2023-08-17T10:02:14;1999.90;;;999.90;;
36653;SDS011;22650;49.350;20.898;2023-08-17T10:04:56;1999.90;;;999.90;;
36653;SDS011;22650;49.350;20.898;2023-08-17T10:07:31;1999.90;;;999.90;;
36653;SDS011;22650;49.350;20.898;2023-08-17T10:10:09;1999.90;;;999.90;;
36653;SDS011;22650;49.350;20.898;2023-08-17T10:12:44;1999.90;;;999.90;;
36653;SDS011;22650;49.350;20.898;2023-08-17T10:15:21;1999.90;;;999.90;;
36653;SDS011;22650;49.350;20.898;2023-08-17T10:17:59;1999.90;;;999.90;;
36653;SDS011;22650;49.350;20.898;2023-08-17T10:20:49;1999.90;;;999.90;;
36653;SDS011;22650;49.350;20.898;2023-08-17T10:23:33;1999.90;;;999.90;;
36653;SDS011;22650;49.350;20.898;2023-08-17T10:26:15;1999.90;;;999.90;;
36653;SDS011;22650;49.350;20.898;2023-08-17T10:28:49;1999.90;;;999.90;;
36653;SDS011;22650;49.350;20.898;2023-08-17T10:31:24;1999.90;;;999.90;;
36653;SDS011;22650;49.350;20.898;2023-08-17T10:33:58;1999.90;;;999.90;;
36653;SDS011;22650;49.350;20.898;2023-08-17T10:36:32;1999.90;;;999.90;;
36653;SDS011;22650;49.350;20.898;2023-08-17T10:39:19;1999.90;;;999.90;;
36653;SDS011;22650;49.350;20.898;2023-08-17T10:42:00;1999.90;;;999.90;;
36653;SDS011;22650;49.350;20.898;2023-08-17T10:44:38;1999.90;;;999.90;;
36653;SDS011;22650;49.350;20.898;2023-08-17T10:47:19;1999.90;;;999.90;;
36653;SDS011;22650;49.350;20.898;2023-08-17T10:49:55;1999.90;;;999.90;;
36653;SDS011;22650;49.350;20.898;2023-08-17T10:52:30;1999.90;;;999.90;;
36653;SDS011;22650;49.350;20.898;2023-08-17T10:55:05;1999.90;;;999.90;;
36653;SDS011;22650;49.350;20.898;2023-08-17T10:57:42;1999.90;;;999.90;;
36653;SDS011;22650;49.350;20.898;2023-08-17T11:00:19;1999.90;;;999.90;;
36653;SDS011;22650;49.350;20.898;2023-08-17T11:02:59;1999.90;;;999.90;;
36653;SDS011;22650;49.350;20.898;2023-08-17T11:05:34;1999.90;;;999.90;;
36653;SDS011;22650;49.350;20.898;2023-08-17T11:08:19;1999.90;;;999.90;;
36653;SDS011;22650;49.350;20.898;2023-08-17T11:10:57;1999.90;;;999.90;;
36653;SDS011;22650;49.350;20.898;2023-08-17T11:13:34;1999.90;;;999.90;;
36653;SDS011;22650;49.350;20.898;2023-08-17T11:16:08;1999.90;;;999.90;;
36653;SDS011;22650;49.350;20.898;2023-08-17T11:18:47;1999.90;;;999.90;;
36653;SDS011;22650;49.350;20.898;2023-08-17T11:21:25;1999.90;;;999.90;;
36653;SDS011;22650;49.350;20.898;2023-08-17T11:23:58;1999.90;;;999.90;;
36653;SDS011;22650;49.350;20.898;2023-08-17T11:26:32;1999.90;;;999.90;;
36653;SDS011;22650;49.350;20.898;2023-08-17T11:29:08;1999.90;;;999.90;;
36653;SDS011;22650;49.350;20.898;2023-08-17T11:31:43;1999.90;;;999.90;;
36653;SDS011;22650;49.350;20.898;2023-08-17T11:34:21;1999.90;;;804.65;;
36653;SDS011;22650;49.350;20.898;2023-08-17T11:36:56;1999.90;;;439.85;;
36653;SDS011;22650;49.350;20.898;2023-08-17T11:39:36;1999.90;;;795.80;;
36653;SDS011;22650;49.350;20.898;2023-08-17T11:42:09;1925.80;;;581.47;;
36653;SDS011;22650;49.350;20.898;2023-08-17T11:44:45;1999.90;;;999.90;;
36653;SDS011;22650;49.350;20.898;2023-08-17T11:47:18;1999.90;;;999.90;;
36653;SDS011;22650;49.350;20.898;2023-08-17T11:49:58;1999.90;;;999.90;;
36653;SDS011;22650;49.350;20.898;2023-08-17T11:52:50;1999.90;;;702.40;;
36653;SDS011;22650;49.350;20.898;2023-08-17T11:55:24;1999.90;;;446.20;;
36653;SDS011;22650;49.350;20.898;2023-08-17T11:57:58;1999.90;;;341.15;;
36653;SDS011;22650;49.350;20.898;2023-08-17T12:00:35;1999.90;;;572.53;;
36653;SDS011;22650;49.350;20.898;2023-08-17T12:03:13;1999.90;;;557.30;;
36653;SDS011;22650;49.350;20.898;2023-08-17T12:05:48;1999.90;;;750.20;;
36653;SDS011;22650;49.350;20.898;2023-08-17T12:08:29;1999.90;;;396.60;;
36653;SDS011;22650;49.350;20.898;2023-08-17T12:11:03;1999.90;;;817.88;;
36653;SDS011;22650;49.350;20.898;2023-08-17T12:13:37;1999.90;;;738.20;;
36653;SDS011;22650;49.350;20.898;2023-08-17T12:16:15;1999.90;;;999.90;;
36653;SDS011;22650;49.350;20.898;2023-08-17T12:18:49;1999.90;;;999.90;;
36653;SDS011;22650;49.350;20.898;2023-08-17T12:21:25;1999.90;;;999.90;;
36653;SDS011;22650;49.350;20.898;2023-08-17T12:24:02;1999.90;;;834.95;;
36653;SDS011;22650;49.350;20.898;2023-08-17T12:26:40;1999.90;;;999.90;;
36653;SDS011;22650;49.350;20.898;2023-08-17T12:29:14;1999.90;;;483.35;;
36653;SDS011;22650;49.350;20.898;2023-08-17T12:31:51;1792.53;;;771.63;;
36653;SDS011;22650;49.350;20.898;2023-08-17T12:34:25;1999.90;;;999.90;;
36653;SDS011;22650;49.350;20.898;2023-08-17T12:36:58;1999.90;;;834.53;;
36653;SDS011;22650;49.350;20.898;2023-08-17T12:39:32;1554.70;;;754.10;;
36653;SDS011;22650;49.350;20.898;2023-08-17T12:42:06;1999.90;;;999.90;;
36653;SDS011;22650;49.350;20.898;2023-08-17T12:44:43;1595.88;;;756.20;;
36653;SDS011;22650;49.350;20.898;2023-08-17T12:47:18;1999.90;;;999.90;;
36653;SDS011;22650;49.350;20.898;2023-08-17T12:49:52;1999.90;;;999.90;;
36653;SDS011;22650;49.350;20.898;2023-08-17T12:52:25;1999.90;;;288.92;;
36653;SDS011;22650;49.350;20.898;2023-08-17T12:55:00;1999.90;;;999.90;;
36653;SDS011;22650;49.350;20.898;2023-08-17T12:57:34;1999.90;;;999.90;;
36653;SDS011;22650;49.350;20.898;2023-08-17T13:00:08;1999.90;;;999.90;;
36653;SDS011;22650;49.350;20.898;2023-08-17T13:02:44;1999.90;;;999.90;;
36653;SDS011;22650;49.350;20.898;2023-08-17T13:05:21;1999.90;;;999.90;;
36653;SDS011;22650;49.350;20.898;2023-08-17T13:07:54;1999.90;;;999.90;;
36653;SDS011;22650;49.350;20.898;2023-08-17T13:10:28;1999.90;;;999.90;;
36653;SDS011;22650;49.350;20.898;2023-08-17T13:13:02;1999.90;;;999.90;;
36653;SDS011;22650;49.350;20.898;2023-08-17T13:15:36;1999.90;;;999.90;;
36653;SDS011;22650;49.350;20.898;2023-08-17T13:18:11;1999.90;;;999.90;;
36653;SDS011;22650;49.350;20.898;2023-08-17T13:20:45;1999.90;;;999.90;;
36653;SDS011;22650;49.350;20.898;2023-08-17T13:23:19;1999.90;;;999.90;;
36653;SDS011;22650;49.350;20.898;2023-08-17T13:25:53;1999.90;;;999.90;;
36653;SDS011;22650;49.350;20.898;2023-08-17T13:28:27;1391.07;;;528.60;;
36653;SDS011;22650;49.350;20.898;2023-08-17T13:31:01;1999.90;;;357.55;;
36653;SDS011;22650;49.350;20.898;2023-08-17T13:36:28;1999.90;;;540.33;;
36653;SDS011;22650;49.350;20.898;2023-08-17T13:39:03;1999.90;;;999.90;;
36653;SDS011;22650;49.350;20.898;2023-08-17T13:41:37;1999.90;;;999.90;;
36653;SDS011;22650;49.350;20.898;2023-08-17T13:44:12;1999.90;;;999.90;;
36653;SDS011;22650;49.350;20.898;2023-08-17T13:46:45;1999.90;;;999.90;;
36653;SDS011;22650;49.350;20.898;2023-08-17T13:49:20;1743.40;;;553.25;;
36653;SDS011;22650;49.350;20.898;2023-08-17T13:51:54;1999.90;;;999.90;;
36653;SDS011;22650;49.350;20.898;2023-08-17T13:54:28;1999.90;;;999.90;;
36653;SDS011;22650;49.350;20.898;2023-08-17T13:57:02;1999.90;;;999.90;;
36653;SDS011;22650;49.350;20.898;2023-08-17T13:59:36;1999.90;;;999.90;;
36653;SDS011;22650;49.350;20.898;2023-08-17T14:02:10;1999.90;;;999.90;;
36653;SDS011;22650;49.350;20.898;2023-08-17T14:04:45;1999.90;;;999.90;;
36653;SDS011;22650;49.350;20.898;2023-08-17T14:07:19;1999.90;;;999.90;;
36653;SDS011;22650;49.350;20.898;2023-08-17T14:09:53;1999.90;;;999.90;;
36653;SDS011;22650;49.350;20.898;2023-08-17T14:12:40;1999.90;;;999.90;;
36653;SDS011;22650;49.350;20.898;2023-08-17T14:15:14;1999.90;;;999.90;;
36653;SDS011;22650;49.350;20.898;2023-08-17T14:17:48;1999.90;;;311.50;;
36653;SDS011;22650;49.350;20.898;2023-08-17T14:20:24;1999.90;;;582.80;;
36653;SDS011;22650;49.350;20.898;2023-08-17T14:22:58;1999.90;;;429.00;;
36653;SDS011;22650;49.350;20.898;2023-08-17T14:25:32;1999.90;;;972.70;;